Time;durP1;ratioP1;P1;durP2;ratioP2;P2;SDS_P1;SDS_P2;PMS_P1;PMS_P2;Temp;Humidity;BMP_temperature;BMP_pressure;BME280_temperature;BME280_humidity;BME280_pressure;Samples;Min_cycle;Max_cycle;Signal;HPM_P1;HPM_P2
2022/01/13 00:01:46;;;;;;;20.45;6.93;;;;;;;11.37;82.75;101326.78;5012959;28;20093;-78
2022/01/13 00:04:15;;;;;;;16.45;5.57;;;;;;;11.41;82.67;101328.66;5013132;28;20042;-78
2022/01/13 00:06:43;;;;;;;16.30;3.67;;;;;;;11.40;82.69;101332.16;5011454;28;20050;-79
2022/01/13 00:09:11;;;;;;;14.55;3.90;;;;;;;11.32;83.09;101330.19;5012528;28;20193;-78
2022/01/13 00:12:20;;;;;;;21.08;4.78;;;;;;;11.28;83.36;101325.72;5031686;28;20091;-78
2022/01/13 00:15:09;;;;;;;23.55;5.20;;;;;;;11.30;83.46;101322.22;5015714;28;20497;-79
2022/01/13 00:20:34;;;;;;;18.35;5.22;;;;;;;11.23;83.58;101315.03;5011029;28;20048;-79
2022/01/13 00:25:52;;;;;;;;;;;;;;;11.21;83.54;101322.03;5032195;28;20038;-79
2022/01/13 00:28:21;;;;;;;16.90;4.78;;;;;;;11.27;83.51;101324.81;4994777;28;19922;-79
2022/01/13 00:30:54;;;;;;;13.45;3.17;;;;;;;11.28;83.45;101323.97;4991895;28;20042;-80
2022/01/13 00:33:25;;;;;;;13.90;3.25;;;;;;;11.28;83.54;101336.28;5024122;28;20041;-80
2022/01/13 00:35:54;;;;;;;13.15;2.45;;;;;;;11.26;83.47;101332.72;5011979;28;20038;-80
2022/01/13 00:38:22;;;;;;;11.10;3.70;;;;;;;11.19;83.46;101336.97;5012932;28;20096;-80
2022/01/13 00:40:50;;;;;;;10.80;3.53;;;;;;;11.17;83.52;101339.56;5012853;28;20125;-80
2022/01/13 00:43:17;;;;;;;14.02;3.83;;;;;;;11.14;83.18;101341.25;5011027;28;20034;-80
2022/01/13 00:45:47;;;;;;;14.88;4.10;;;;;;;11.13;83.23;101345.66;5011847;28;20084;-80
2022/01/13 00:48:16;;;;;;;15.77;4.63;;;;;;;11.17;83.04;101338.66;5011545;28;20274;-79
2022/01/13 00:50:44;;;;;;;18.52;5.78;;;;;;;11.21;83.12;101347.56;5011364;28;20053;-79
2022/01/13 00:53:11;;;;;;;19.23;4.80;;;;;;;11.27;83.07;101337.13;5012689;28;20084;-80
2022/01/13 00:58:20;;;;;;;12.68;3.78;;;;;;;11.31;83.41;101338.97;4996230;28;20061;-80
2022/01/13 01:00:48;;;;;;;13.18;3.92;;;;;;;11.30;83.45;101353.03;5012500;28;20049;-80
2022/01/13 01:03:17;;;;;;;11.93;3.85;;;;;;;11.25;83.50;101349.41;5011287;28;20046;-80
2022/01/13 01:05:45;;;;;;;17.52;6.60;;;;;;;11.16;83.78;101358.03;5012850;28;20576;-80
2022/01/13 01:08:13;;;;;;;14.27;5.43;;;;;;;11.27;83.61;101359.19;5012568;28;20042;-81
2022/01/13 01:10:41;;;;;;;13.93;4.05;;;;;;;11.26;83.40;101345.91;5012295;28;20509;-80
2022/01/13 01:13:15;;;;;;;13.18;3.30;;;;;;;11.22;83.22;101352.00;5012385;28;20630;-79
2022/01/13 01:15:47;;;;;;;11.35;3.05;;;;;;;11.24;83.31;101358.19;4991719;28;20046;-80
2022/01/13 01:18:28;;;;;;;12.98;3.35;;;;;;;11.09;83.39;101358.78;5010777;28;20046;-80
2022/01/13 01:21:18;;;;;;;18.30;5.75;;;;;;;11.14;83.42;101362.41;5012327;28;20050;-81
2022/01/13 01:24:11;;;;;;;11.82;2.70;;;;;;;11.09;83.67;101362.28;4982182;28;20050;-81
2022/01/13 01:26:42;;;;;;;15.95;3.25;;;;;;;10.94;83.59;101361.03;5012035;28;20037;-78
2022/01/13 01:29:18;;;;;;;12.07;2.80;;;;;;;10.89;83.54;101365.34;5010788;28;20054;-80
2022/01/13 01:31:49;;;;;;;14.13;3.25;;;;;;;11.04;83.37;101360.38;5012209;28;20100;-81
2022/01/13 01:34:32;;;;;;;12.88;4.03;;;;;;;11.05;83.16;101356.88;5012252;28;20044;-80
2022/01/13 01:37:00;;;;;;;15.70;6.40;;;;;;;10.99;83.49;101359.41;5011239;28;20038;-82
2022/01/13 01:39:28;;;;;;;9.40;2.72;;;;;;;10.98;83.44;101352.31;5012095;28;20042;-81
2022/01/13 01:41:57;;;;;;;9.80;4.60;;;;;;;11.05;83.34;101351.59;5012324;28;20050;-81
2022/01/13 01:44:30;;;;;;;13.80;3.28;;;;;;;10.95;83.30;101371.66;5011740;28;20049;-82
2022/01/13 01:47:00;;;;;;;13.18;2.60;;;;;;;10.95;83.43;101373.41;4991742;28;20419;-82
2022/01/13 01:49:32;;;;;;;14.88;2.30;;;;;;;10.96;83.52;101373.41;5005296;28;20042;-82
2022/01/13 01:52:02;;;;;;;17.75;6.30;;;;;;;10.97;83.58;101375.19;5011108;28;20053;-81
2022/01/13 01:54:31;;;;;;;9.23;2.25;;;;;;;10.94;83.36;101375.16;5011398;28;20042;-82
2022/01/13 01:56:58;;;;;;;8.98;2.20;;;;;;;10.96;83.34;101388.41;5012166;28;20119;-81
2022/01/13 01:59:29;;;;;;;10.80;2.53;;;;;;;10.93;83.02;101370.72;5011878;28;20120;-82
2022/01/13 02:01:58;;;;;;;14.75;2.40;;;;;;;10.94;83.06;101380.44;5011908;28;20564;-82
2022/01/13 02:04:27;;;;;;;12.27;2.30;;;;;;;10.95;82.86;101357.56;5011014;28;20497;-82
2022/01/13 02:06:59;;;;;;;13.23;3.00;;;;;;;10.94;82.97;101367.22;5010347;28;20050;-83
2022/01/13 02:09:27;;;;;;;12.00;2.28;;;;;;;10.99;82.96;101372.59;5008770;28;20041;-82
2022/01/13 02:12:00;;;;;;;10.07;2.22;;;;;;;10.89;83.08;101368.88;5008987;28;20030;-80
2022/01/13 02:14:36;;;;;;;12.73;2.63;;;;;;;10.80;83.31;101368.63;5009038;28;20453;-81
2022/01/13 02:17:09;;;;;;;11.18;2.70;;;;;;;10.88;83.21;101369.72;5010633;28;20103;-81
2022/01/13 02:19:38;;;;;;;8.93;1.85;;;;;;;10.77;83.13;101366.78;5009828;28;20453;-82
2022/01/13 02:22:09;;;;;;;12.07;2.42;;;;;;;10.67;83.12;101378.00;5010883;28;20546;-81
2022/01/13 02:24:37;;;;;;;10.02;2.28;;;;;;;10.70;83.25;101378.06;4991440;28;20049;-82
2022/01/13 02:27:07;;;;;;;8.57;2.15;;;;;;;10.71;83.30;101384.25;5024914;28;20084;-82
2022/01/13 02:29:35;;;;;;;7.65;2.28;;;;;;;10.67;83.43;101382.38;4999385;28;20387;-81
2022/01/13 02:32:04;;;;;;;10.32;3.65;;;;;;;10.68;83.33;101379.78;5010824;28;20100;-82
2022/01/13 02:34:32;;;;;;;13.93;4.28;;;;;;;10.69;83.29;101383.34;5011939;28;20038;-82
2022/01/13 02:36:59;;;;;;;15.38;7.30;;;;;;;10.65;83.00;101384.09;5011938;28;20077;-82
2022/01/13 02:39:29;;;;;;;12.18;5.63;;;;;;;10.66;82.98;101377.97;5011747;28;20046;-82
2022/01/13 02:41:57;;;;;;;14.63;6.05;;;;;;;10.65;83.15;101376.16;5010785;28;20123;-82
2022/01/13 02:44:25;;;;;;;11.30;5.22;;;;;;;10.68;83.20;101382.44;4978369;28;20125;-83
2022/01/13 02:47:08;;;;;;;11.98;3.25;;;;;;;10.68;83.38;101386.81;5011775;28;20042;-82
2022/01/13 02:49:36;;;;;;;12.18;3.65;;;;;;;10.67;83.47;101387.66;5010331;28;20096;-82
2022/01/13 02:52:05;;;;;;;16.77;3.92;;;;;;;10.67;83.69;101391.22;4990909;28;20066;-82
2022/01/13 02:54:34;;;;;;;14.13;3.13;;;;;;;10.69;83.53;101391.25;4992754;28;20406;-82
2022/01/13 02:57:01;;;;;;;14.90;4.15;;;;;;;10.67;83.37;101392.94;4995071;28;20070;-81
2022/01/13 02:59:29;;;;;;;12.98;2.38;;;;;;;10.66;83.37;101393.81;4994510;28;20056;-80
2022/01/13 03:01:57;;;;;;;12.82;3.30;;;;;;;10.66;83.30;101393.81;4994793;28;20380;-81
2022/01/13 03:04:24;;;;;;;12.57;2.70;;;;;;;10.76;83.29;101380.84;4996027;28;20495;-82
2022/01/13 03:06:52;;;;;;;13.40;3.22;;;;;;;10.79;83.21;101387.97;4996313;28;20035;-82
2022/01/13 03:09:21;;;;;;;10.35;2.38;;;;;;;10.77;83.01;101384.38;4999383;28;20058;-82
2022/01/13 03:11:51;;;;;;;14.18;2.65;;;;;;;10.72;82.82;101389.56;4995892;28;20046;-82
2022/01/13 03:14:18;;;;;;;11.35;2.85;;;;;;;10.67;82.82;101403.50;4999957;28;20041;-81
2022/01/13 03:16:46;;;;;;;12.57;2.42;;;;;;;10.66;82.71;101385.88;4994081;28;20468;-81
2022/01/13 03:19:15;;;;;;;11.10;2.35;;;;;;;10.63;82.56;101394.59;4995195;28;20451;-81
2022/01/13 03:21:43;;;;;;;8.57;2.03;;;;;;;10.62;82.42;101397.22;4995657;28;20548;-81
2022/01/13 03:24:11;;;;;;;11.10;2.67;;;;;;;10.67;81.98;101382.38;4995366;28;20479;-80
2022/01/13 03:26:41;;;;;;;8.55;1.92;;;;;;;10.57;81.80;101396.19;4995231;28;20043;-78
2022/01/13 03:29:21;;;;;;;7.85;2.08;;;;;;;10.54;81.27;101397.03;4990416;28;20070;-81
2022/01/13 03:31:49;;;;;;;13.27;3.00;;;;;;;10.54;81.46;101409.34;4996233;28;20070;-82
2022/01/13 03:34:17;;;;;;;9.07;2.55;;;;;;;10.55;81.54;101405.84;4993775;28;20120;-82
2022/01/13 03:36:45;;;;;;;10.80;2.70;;;;;;;10.54;81.40;101404.94;4995323;28;20038;-82
2022/01/13 03:39:14;;;;;;;12.55;3.13;;;;;;;10.53;81.46;101407.53;4995067;28;20070;-81
2022/01/13 03:41:42;;;;;;;12.35;3.60;;;;;;;10.58;81.54;101417.34;4994099;28;20054;-82
2022/01/13 03:44:18;;;;;;;12.07;3.85;;;;;;;10.59;81.39;101412.97;4993951;28;20096;-81
2022/01/13 03:46:46;;;;;;;12.57;2.85;;;;;;;10.53;81.82;101405.78;4977265;28;20450;-82
2022/01/13 03:49:13;;;;;;;13.02;3.38;;;;;;;10.52;81.86;101419.84;4995201;28;20471;-82
2022/01/13 03:52:31;;;;;;;10.63;3.80;;;;;;;10.52;82.06;101417.19;4994776;28;20042;-80
2022/01/13 03:55:32;;;;;;;14.38;2.80;;;;;;;10.49;82.42;101416.25;4916188;29;20111;-81
2022/01/13 03:58:36;;;;;;;15.75;3.22;;;;;;;10.37;82.78;101420.31;4934703;29;20039;-79
2022/01/13 04:01:55;;;;;;;9.10;3.10;;;;;;;10.41;83.04;101436.25;4991192;28;20054;-77
2022/01/13 04:04:23;;;;;;;11.82;2.75;;;;;;;10.33;83.05;101436.03;5012161;28;20116;-77
2022/01/13 04:06:50;;;;;;;13.13;3.00;;;;;;;10.32;83.16;101432.50;5012277;28;20054;-78
2022/01/13 04:10:04;;;;;;;13.93;2.60;;;;;;;10.31;83.19;101433.34;4994728;28;20453;-79
2022/01/13 04:12:31;;;;;;;10.82;2.40;;;;;;;10.22;83.15;101432.22;4991581;28;20487;-79
2022/01/13 04:15:02;;;;;;;12.00;3.75;;;;;;;10.17;83.35;101437.38;4991820;28;20149;-80
2022/01/13 04:17:31;;;;;;;15.90;2.75;;;;;;;10.17;83.31;101432.09;4991819;28;20100;-79
2022/01/13 04:19:59;;;;;;;12.68;2.78;;;;;;;10.16;83.35;101443.47;4993991;28;20076;-80
2022/01/13 04:22:27;;;;;;;10.90;2.58;;;;;;;10.18;83.22;101446.16;4993645;28;20112;-80
2022/01/13 04:24:55;;;;;;;14.82;2.80;;;;;;;10.21;83.29;101444.53;5017158;28;20038;-80
2022/01/13 04:27:27;;;;;;;9.63;2.55;;;;;;;10.22;83.23;101442.78;4992851;28;20062;-80
2022/01/13 04:30:23;;;;;;;12.88;2.45;;;;;;;10.16;82.96;101442.56;4997378;28;20046;-80
2022/01/13 04:32:50;;;;;;;12.90;3.17;;;;;;;10.13;82.71;101448.66;4996931;28;20034;-80
2022/01/13 04:35:18;;;;;;;15.93;2.92;;;;;;;10.14;82.64;101439.88;4994121;28;20093;-80
2022/01/13 04:37:47;;;;;;;11.98;2.72;;;;;;;10.13;82.10;101448.66;4992495;28;20166;-80
2022/01/13 04:40:15;;;;;;;11.98;2.90;;;;;;;10.13;81.94;101464.47;4992391;28;20054;-80
2022/01/13 04:42:45;;;;;;;10.18;2.90;;;;;;;10.15;81.77;101464.53;4992191;28;20042;-79
2022/01/13 04:45:12;;;;;;;16.98;3.90;;;;;;;10.20;81.95;101462.94;4992321;28;20044;-80
2022/01/13 04:47:40;;;;;;;13.50;2.25;;;;;;;10.26;81.62;101463.09;4991968;28;20070;-79
2022/01/13 04:50:10;;;;;;;11.65;2.97;;;;;;;10.25;81.27;101488.59;4990321;28;20444;-81
2022/01/13 04:52:38;;;;;;;8.90;3.38;;;;;;;10.26;81.51;101484.22;5012229;28;20069;-80
2022/01/13 04:55:11;;;;;;;12.40;2.97;;;;;;;10.26;81.30;101482.47;5013359;28;20069;-81
2022/01/13 04:57:39;;;;;;;15.45;4.68;;;;;;;10.26;81.41;101492.13;4993337;28;20458;-80
2022/01/13 05:00:08;;;;;;;14.05;3.58;;;;;;;10.25;81.46;101480.69;5011327;28;20120;-80
2022/01/13 05:02:36;;;;;;;12.27;2.83;;;;;;;10.17;81.43;101489.25;4974150;28;20051;-80
2022/01/13 05:05:04;;;;;;;14.80;3.25;;;;;;;10.09;81.58;101498.66;4992400;28;20053;-77
2022/01/13 05:07:34;;;;;;;12.20;3.10;;;;;;;10.07;81.88;101505.59;5002807;28;20417;-77
2022/01/13 05:10:02;;;;;;;14.38;3.58;;;;;;;10.06;82.21;101501.19;5009712;28;20037;-78
2022/01/13 05:12:34;;;;;;;12.10;2.72;;;;;;;9.98;82.43;101496.56;5009851;28;20820;-79
2022/01/13 05:15:04;;;;;;;9.73;2.83;;;;;;;9.91;82.47;101504.28;4997180;28;20049;-78
2022/01/13 05:18:04;;;;;;;15.68;2.88;;;;;;;9.91;82.72;101499.00;5005452;28;20053;-78
2022/01/13 05:20:40;;;;;;;11.50;4.45;;;;;;;9.91;82.53;101491.09;5023251;28;20821;-78
2022/01/13 05:23:11;;;;;;;11.90;3.35;;;;;;;9.92;82.75;101506.94;4976397;28;20067;-79
2022/01/13 05:25:39;;;;;;;17.15;5.78;;;;;;;9.92;82.82;101500.78;4983352;28;20125;-79
2022/01/13 05:28:07;;;;;;;17.02;4.13;;;;;;;9.94;83.09;101505.25;5001286;28;20446;-79
2022/01/13 05:30:35;;;;;;;15.85;5.68;;;;;;;9.93;83.12;101500.81;4992615;28;20414;-80
2022/01/13 05:33:03;;;;;;;16.35;5.38;;;;;;;9.98;83.02;101515.03;4992226;28;20046;-80
2022/01/13 05:35:31;;;;;;;12.57;5.18;;;;;;;10.03;82.95;101514.28;4991333;28;20046;-81
2022/01/13 05:37:58;;;;;;;15.85;6.47;;;;;;;9.99;82.75;101527.38;4983569;28;20214;-80
2022/01/13 05:40:28;;;;;;;13.98;3.70;;;;;;;9.96;82.64;101527.31;4990191;28;20038;-81
2022/01/13 05:42:55;;;;;;;12.52;3.13;;;;;;;9.95;82.68;101532.53;4990321;28;20057;-81
2022/01/13 05:45:28;;;;;;;13.57;3.25;;;;;;;9.97;82.39;101530.84;4996200;28;20034;-81
2022/01/13 05:47:57;;;;;;;17.48;4.05;;;;;;;10.02;82.56;101538.88;4983581;28;20047;-80
2022/01/13 05:50:25;;;;;;;13.50;4.10;;;;;;;10.01;82.49;101548.53;5017635;28;20065;-80
2022/01/13 05:52:53;;;;;;;10.82;3.03;;;;;;;10.04;82.41;101531.91;4999327;28;20046;-80
2022/01/13 05:55:21;;;;;;;13.43;3.75;;;;;;;10.03;82.32;101541.56;4992328;28;20086;-80
2022/01/13 05:57:50;;;;;;;9.90;2.35;;;;;;;10.09;82.15;101532.94;4974471;28;20042;-79
2022/01/13 06:00:20;;;;;;;13.00;3.33;;;;;;;10.14;81.95;101537.50;4977541;28;20130;-80
2022/01/13 06:02:48;;;;;;;14.85;3.35;;;;;;;10.18;82.02;101551.69;4989268;28;20136;-80
2022/01/13 06:05:16;;;;;;;15.38;5.03;;;;;;;10.22;81.85;101548.31;4990603;28;20038;-80
2022/01/13 06:07:43;;;;;;;31.83;9.82;;;;;;;10.20;81.45;101544.72;4982004;28;20109;-80
2022/01/13 06:10:18;;;;;;;17.58;5.43;;;;;;;10.21;81.46;101557.97;4999609;28;20453;-79
2022/01/13 06:12:46;;;;;;;17.70;9.07;;;;;;;10.24;81.40;101557.19;5009338;28;20528;-80
2022/01/13 06:15:18;;;;;;;21.05;11.00;;;;;;;10.26;81.83;101559.00;5004722;28;20112;-80
2022/01/13 06:17:47;;;;;;;21.95;15.88;;;;;;;10.25;81.76;101570.41;5000008;28;20056;-80
2022/01/13 06:20:15;;;;;;;19.33;10.63;;;;;;;10.24;81.76;101558.06;5026709;28;20096;-80
2022/01/13 06:22:45;;;;;;;23.73;9.73;;;;;;;10.24;81.76;101558.06;5011799;28;20046;-81
2022/01/13 06:25:14;;;;;;;17.55;8.35;;;;;;;10.20;81.57;101560.56;5003476;28;20129;-80
2022/01/13 06:27:42;;;;;;;18.23;10.35;;;;;;;10.17;81.46;101566.66;5003776;28;20415;-80
2022/01/13 06:30:31;;;;;;;14.00;7.05;;;;;;;10.17;81.01;101574.56;5006330;28;20038;-80
2022/01/13 06:32:59;;;;;;;23.73;13.13;;;;;;;10.16;81.08;101564.84;4999622;28;20050;-80
2022/01/13 06:35:27;;;;;;;13.23;8.20;;;;;;;10.18;81.11;101556.97;4990114;28;20038;-80
2022/01/13 06:37:54;;;;;;;17.92;9.82;;;;;;;10.21;80.94;101567.63;4998180;28;20042;-81
2022/01/13 06:40:24;;;;;;;17.58;12.57;;;;;;;10.23;80.83;101571.22;5019999;28;20120;-80
2022/01/13 06:42:52;;;;;;;17.95;8.68;;;;;;;10.20;80.23;101568.47;4991466;28;20407;-81
2022/01/13 06:45:20;;;;;;;16.05;6.80;;;;;;;10.16;80.41;101570.09;5009706;28;20042;-79
2022/01/13 06:47:49;;;;;;;18.50;7.50;;;;;;;10.17;80.23;101593.03;4992535;28;20125;-80
2022/01/13 06:50:18;;;;;;;13.90;5.78;;;;;;;10.21;80.42;101600.19;4996906;28;20117;-80
2022/01/13 06:52:47;;;;;;;22.35;8.95;;;;;;;10.26;80.23;101593.31;4997656;28;20042;-80
2022/01/13 06:55:15;;;;;;;8.75;3.28;;;;;;;10.27;80.00;101602.13;5009012;28;20061;-80
2022/01/13 06:57:43;;;;;;;10.20;3.58;;;;;;;10.30;79.77;101599.59;5008139;28;20407;-80
2022/01/13 07:00:12;;;;;;;8.02;2.30;;;;;;;10.37;79.66;101591.00;5010042;28;20042;-79
2022/01/13 07:02:40;;;;;;;8.05;2.38;;;;;;;10.38;79.41;101591.03;5006790;28;20038;-79
2022/01/13 07:05:11;;;;;;;10.35;2.80;;;;;;;10.44;78.99;101599.97;5011241;28;20059;-80
2022/01/13 07:07:40;;;;;;;8.43;2.42;;;;;;;10.43;79.06;101596.47;5010657;28;20045;-80
2022/01/13 07:10:10;;;;;;;10.00;2.45;;;;;;;10.40;78.81;101585.78;4989972;28;20054;-80
2022/01/13 07:12:38;;;;;;;10.70;3.00;;;;;;;10.39;78.71;101597.19;5012001;28;20486;-80
2022/01/13 07:15:07;;;;;;;14.65;2.70;;;;;;;10.44;78.82;101602.59;4995284;28;20120;-80
2022/01/13 07:17:36;;;;;;;12.98;3.25;;;;;;;10.42;78.82;101604.31;4989932;28;20161;-80
2022/01/13 07:20:05;;;;;;;10.65;2.58;;;;;;;10.46;78.73;101598.28;4993148;28;20066;-79
2022/01/13 07:22:35;;;;;;;10.77;2.15;;;;;;;10.54;78.89;101602.03;5030537;28;20045;-81
2022/01/13 07:25:02;;;;;;;14.82;4.55;;;;;;;10.64;79.01;101585.59;5023397;28;20081;-80
2022/01/13 07:27:30;;;;;;;11.48;3.70;;;;;;;10.59;78.85;101608.34;4989359;28;20065;-80
2022/01/13 07:29:57;;;;;;;8.98;3.00;;;;;;;10.56;78.89;101589.78;4999877;28;20101;-81
2022/01/13 07:32:26;;;;;;;10.88;4.07;;;;;;;10.54;79.05;101604.69;4978230;28;20399;-81
2022/01/13 07:34:53;;;;;;;10.63;3.25;;;;;;;10.57;79.42;101623.22;5009581;28;20050;-84
2022/01/13 07:37:24;;;;;;;9.55;3.53;;;;;;;10.51;79.67;101621.31;5010925;28;20034;-86
2022/01/13 07:39:53;;;;;;;14.98;4.28;;;;;;;10.30;80.27;101632.16;5009521;28;20045;-85
2022/01/13 07:42:23;;;;;;;10.32;3.65;;;;;;;10.18;80.96;101617.66;5006364;28;20046;-83
2022/01/13 07:44:51;;;;;;;8.95;3.00;;;;;;;10.07;81.52;101635.75;5014333;28;20089;-83
2022/01/13 07:47:18;;;;;;;13.15;3.13;;;;;;;10.06;81.30;101636.59;5013239;28;20432;-83
2022/01/13 07:49:46;;;;;;;14.80;4.15;;;;;;;10.03;81.51;101641.81;5008534;28;20084;-83
2022/01/13 07:52:13;;;;;;;11.82;4.05;;;;;;;10.07;81.28;101645.41;5013285;28;20061;-82
2022/01/13 07:54:41;;;;;;;8.73;2.58;;;;;;;10.08;80.94;101629.66;5013312;28;20410;-82
2022/01/13 07:57:10;;;;;;;11.65;3.53;;;;;;;10.08;80.78;101642.84;5012053;28;20460;-84
2022/01/13 07:59:37;;;;;;;17.25;4.95;;;;;;;10.10;80.86;101648.16;5031279;28;20046;-82
2022/01/13 08:02:05;;;;;;;16.42;4.97;;;;;;;10.13;81.39;101638.59;5000076;28;20042;-83
2022/01/13 08:04:32;;;;;;;15.35;3.90;;;;;;;10.09;81.41;101652.56;5013170;28;20040;-82
2022/01/13 08:07:00;;;;;;;13.85;4.35;;;;;;;10.12;81.55;101655.25;5013318;28;20069;-82
2022/01/13 08:09:28;;;;;;;9.90;3.67;;;;;;;10.16;81.49;101653.63;5014402;28;20058;-82
2022/01/13 08:11:56;;;;;;;14.60;3.90;;;;;;;10.19;80.91;101664.31;5010399;28;20058;-83
2022/01/13 08:14:25;;;;;;;12.85;4.22;;;;;;;10.21;80.79;101668.78;5013182;28;20044;-83
2022/01/13 08:16:56;;;;;;;9.77;3.00;;;;;;;10.26;80.88;101671.56;5013914;28;20556;-83
2022/01/13 08:22:08;;;;;;;;;;;;;;;10.46;80.97;101685.38;4996907;28;20058;-81
2022/01/13 08:24:36;;;;;;;17.02;8.82;;;;;;;10.41;80.83;101664.13;4977702;28;20001;-83
2022/01/13 08:27:04;;;;;;;11.88;4.65;;;;;;;10.32;80.56;101662.09;4993421;28;20052;-83
2022/01/13 08:29:33;;;;;;;14.77;6.78;;;;;;;10.21;80.54;101668.78;4997231;28;20104;-86
2022/01/13 08:32:01;;;;;;;14.40;4.78;;;;;;;10.11;80.83;101677.22;4974130;28;20042;-84
2022/01/13 08:34:28;;;;;;;14.00;3.28;;;;;;;10.03;81.05;101691.94;4981235;28;20117;-83
2022/01/13 08:36:56;;;;;;;10.45;3.50;;;;;;;10.04;81.29;101690.19;4993084;28;20545;-82
2022/01/13 08:39:23;;;;;;;9.93;3.30;;;;;;;10.05;81.42;101687.56;5013085;28;20129;-81
2022/01/13 08:41:52;;;;;;;18.42;6.68;;;;;;;9.96;81.63;101682.91;5012365;28;20046;-79
2022/01/13 08:44:20;;;;;;;14.93;5.45;;;;;;;9.93;82.38;101706.53;5011231;28;20089;-79
2022/01/13 08:46:49;;;;;;;8.57;2.78;;;;;;;9.91;82.56;101683.63;5005502;28;20046;-81
2022/01/13 08:49:17;;;;;;;11.57;2.70;;;;;;;9.87;82.69;101697.53;5011692;28;20730;-81
2022/01/13 08:51:44;;;;;;;12.63;2.70;;;;;;;9.89;83.04;101694.09;5004968;28;20494;-82
2022/01/13 08:54:12;;;;;;;11.65;2.55;;;;;;;9.95;83.35;101693.41;5017154;28;20547;-81
2022/01/13 08:56:39;;;;;;;12.52;3.88;;;;;;;10.05;83.34;101698.13;5011040;28;20096;-80
2022/01/13 08:59:07;;;;;;;14.93;3.58;;;;;;;10.08;83.30;101685.03;5008939;28;20042;-82
2022/01/13 09:01:35;;;;;;;17.20;3.00;;;;;;;10.07;83.21;101688.53;4996629;28;20042;-81
2022/01/13 09:04:04;;;;;;;15.70;5.15;;;;;;;10.06;82.91;101692.00;4987376;28;20043;-81
2022/01/13 09:06:32;;;;;;;17.50;4.75;;;;;;;10.06;82.86;101692.00;4986604;28;20051;-82
2022/01/13 09:08:59;;;;;;;15.25;4.90;;;;;;;10.04;82.50;101699.00;5004245;28;20038;-82
2022/01/13 09:11:29;;;;;;;14.40;6.38;;;;;;;9.99;82.54;101700.56;5011322;28;20046;-83
2022/01/13 09:13:58;;;;;;;16.73;8.90;;;;;;;10.02;82.60;101703.31;5005611;28;20513;-83
2022/01/13 09:16:27;;;;;;;16.25;5.57;;;;;;;10.01;82.41;101696.25;4990995;28;20046;-82
2022/01/13 09:21:46;;;;;;;18.00;7.57;;;;;;;9.96;81.98;101698.75;4989632;28;20046;-83
2022/01/13 09:24:18;;;;;;;15.55;8.30;;;;;;;10.02;82.18;101708.59;5006262;28;20646;-81
2022/01/13 09:26:46;;;;;;;22.83;12.75;;;;;;;10.18;82.15;101708.25;5007928;28;20506;-84
2022/01/13 09:29:15;;;;;;;19.20;7.60;;;;;;;10.21;82.04;101699.56;5019846;28;20449;-81
2022/01/13 09:31:44;;;;;;;13.05;5.30;;;;;;;9.95;81.92;101690.78;5009245;28;20548;-79
2022/01/13 09:34:12;;;;;;;15.00;4.05;;;;;;;9.86;82.35;101714.19;5005892;28;20116;-79
2022/01/13 09:36:40;;;;;;;14.32;3.90;;;;;;;9.90;82.70;101706.44;5010059;28;20402;-81
2022/01/13 09:39:10;;;;;;;10.88;2.80;;;;;;;9.94;82.64;101715.34;5009952;28;20446;-80
2022/01/13 09:41:42;;;;;;;18.10;7.60;;;;;;;10.04;83.01;101698.09;5010984;28;20520;-80
2022/01/13 09:44:10;;;;;;;18.77;7.50;;;;;;;10.09;82.65;101697.41;4988973;28;20042;-80
2022/01/13 09:46:38;;;;;;;17.98;5.22;;;;;;;10.20;82.80;101710.97;5004263;28;20108;-84
2022/01/13 09:49:07;;;;;;;14.25;4.15;;;;;;;10.12;82.11;101705.41;5008689;28;20058;-81
2022/01/13 09:51:38;;;;;;;18.42;6.18;;;;;;;10.05;81.69;101716.59;4993709;28;20130;-80
2022/01/13 09:54:06;;;;;;;19.67;7.93;;;;;;;10.03;81.63;101725.31;4993413;28;20069;-79
2022/01/13 09:56:35;;;;;;;23.20;8.00;;;;;;;9.94;82.02;101725.91;4991103;28;20125;-78
2022/01/13 09:59:04;;;;;;;17.10;5.78;;;;;;;9.96;82.17;101729.50;4989443;28;20125;-79
2022/01/13 10:01:31;;;;;;;12.52;3.60;;;;;;;9.94;82.08;101725.91;4990108;28;20050;-79
2022/01/13 10:03:59;;;;;;;14.60;3.80;;;;;;;9.89;82.25;101722.22;4989710;28;20046;-79
2022/01/13 10:06:27;;;;;;;18.40;7.00;;;;;;;9.95;82.10;101730.34;4988297;28;20498;-80
2022/01/13 10:08:57;;;;;;;16.95;4.95;;;;;;;9.99;81.96;101706.72;4994728;28;20521;-79
2022/01/13 10:11:25;;;;;;;17.77;6.32;;;;;;;10.02;81.67;101712.97;4990468;28;20061;-79
2022/01/13 10:14:05;;;;;;;15.30;5.03;;;;;;;10.05;81.48;101703.41;4988900;28;20050;-80
2022/01/13 10:16:32;;;;;;;18.80;5.72;;;;;;;10.09;81.64;101705.31;4983260;28;20047;-80
2022/01/13 10:19:00;;;;;;;22.98;9.30;;;;;;;10.21;81.57;101703.09;5022041;28;20045;-79
2022/01/13 10:21:28;;;;;;;14.63;5.70;;;;;;;10.21;81.21;101700.47;4991182;28;20252;-79
2022/01/13 10:24:06;;;;;;;14.23;3.80;;;;;;;10.14;80.92;101701.06;5012003;28;20052;-80
2022/01/13 10:26:34;;;;;;;22.73;11.00;;;;;;;10.10;80.94;101688.63;5010288;28;20050;-81
2022/01/13 10:29:05;;;;;;;13.95;7.03;;;;;;;10.14;80.74;101697.53;5011468;28;20129;-80
2022/01/13 10:31:47;;;;;;;17.48;5.55;;;;;;;10.12;80.44;101705.41;4999850;28;20050;-79
2022/01/13 10:34:20;;;;;;;18.88;5.53;;;;;;;10.10;80.49;101711.47;4977583;28;20042;-79
2022/01/13 10:37:03;;;;;;;17.73;5.75;;;;;;;10.07;80.55;101711.38;4973317;28;20050;-79
2022/01/13 10:39:46;;;;;;;17.70;5.90;;;;;;;10.18;80.77;101710.00;4984697;28;20050;-81
2022/01/13 10:42:32;;;;;;;11.80;4.80;;;;;;;10.36;81.16;101703.59;4999855;28;20073;-81
2022/01/13 10:45:02;;;;;;;12.30;7.20;;;;;;;10.47;81.01;101703.91;5007875;28;20584;-80
2022/01/13 10:47:31;;;;;;;11.18;4.50;;;;;;;10.46;80.58;101699.47;5009665;28;20038;-79
2022/01/13 10:50:02;;;;;;;13.02;4.07;;;;;;;10.39;80.28;101705.41;5003459;28;20041;-80
2022/01/13 10:52:30;;;;;;;24.08;8.77;;;;;;;10.28;79.90;101691.00;5009303;28;20144;-79
2022/01/13 10:55:03;;;;;;;16.98;7.88;;;;;;;10.27;79.26;101690.09;4994998;28;20145;-79
2022/01/13 10:57:33;;;;;;;18.83;6.93;;;;;;;10.27;79.26;101697.13;4991997;28;20042;-81
2022/01/13 11:00:03;;;;;;;15.70;4.53;;;;;;;10.33;78.59;101695.56;5007506;28;20072;-81
2022/01/13 11:02:31;;;;;;;18.85;8.02;;;;;;;10.33;78.68;101686.75;5009997;28;20438;-81
2022/01/13 11:05:03;;;;;;;18.00;9.40;;;;;;;10.55;79.35;101688.31;5011714;28;20038;-80
2022/01/13 11:07:31;;;;;;;18.65;6.93;;;;;;;10.89;79.61;101672.63;5011367;28;20045;-81
2022/01/13 11:10:01;;;;;;;22.08;11.63;;;;;;;11.05;79.75;101682.75;5010078;28;20038;-80
2022/01/13 11:12:32;;;;;;;15.07;5.20;;;;;;;10.96;79.12;101679.00;5010341;28;20405;-80
2022/01/13 11:15:05;;;;;;;16.02;5.90;;;;;;;10.82;78.49;101665.38;5011352;28;20448;-81
2022/01/13 11:17:37;;;;;;;13.43;5.85;;;;;;;10.58;77.83;101680.47;5014326;28;20057;-81
2022/01/13 11:20:07;;;;;;;19.27;9.23;;;;;;;10.55;78.08;101676.00;5013802;28;20053;-81
2022/01/13 11:22:38;;;;;;;13.13;4.72;;;;;;;10.59;77.46;101682.28;4996167;28;20109;-81
2022/01/13 11:25:07;;;;;;;12.52;4.72;;;;;;;10.58;77.06;101676.09;5002526;28;20052;-81
2022/01/13 11:27:35;;;;;;;10.43;5.13;;;;;;;10.41;76.71;101679.97;5014341;28;20153;-82
2022/01/13 11:30:08;;;;;;;19.55;10.02;;;;;;;10.33;76.85;101658.63;5013823;28;20049;-82
2022/01/13 11:32:37;;;;;;;24.83;14.45;;;;;;;10.23;77.06;101677.66;5001562;28;20065;-82
2022/01/13 11:35:05;;;;;;;19.65;8.55;;;;;;;10.17;76.44;101659.00;4994878;28;20043;-82
2022/01/13 11:37:34;;;;;;;34.33;16.00;;;;;;;10.24;76.36;101665.38;4997921;28;20038;-82
2022/01/13 11:40:02;;;;;;;38.03;20.80;;;;;;;10.30;75.79;101655.00;5033752;28;20045;-84
2022/01/13 11:42:30;;;;;;;21.83;9.40;;;;;;;10.37;75.97;101643.78;5030854;28;20045;-83
2022/01/13 11:45:16;;;;;;;17.55;7.97;;;;;;;10.43;74.59;101658.91;5014810;28;20062;-84
2022/01/13 11:47:44;;;;;;;16.65;8.32;;;;;;;10.48;74.69;101649.38;4993625;28;20072;-80
2022/01/13 11:50:19;;;;;;;17.55;8.45;;;;;;;10.59;74.47;101650.59;4990093;28;20092;-79